createdAt,value
2022-09-28T00:01:24.641Z,5.25
2022-09-28T00:03:57.635Z,5.55
2022-09-28T00:06:30.178Z,4.82
2022-09-28T00:08:59.292Z,4.32
2022-09-28T00:11:29.108Z,4.45
2022-09-28T00:14:00.106Z,5.13
2022-09-28T00:16:30.122Z,4.50
2022-09-28T00:18:59.844Z,5.25
2022-09-28T00:21:29.794Z,4.93
2022-09-28T00:24:15.215Z,5.18
2022-09-28T00:26:47.234Z,5.70
2022-09-28T00:29:22.005Z,5.32
2022-09-28T00:31:52.439Z,5.90
2022-09-28T00:34:22.139Z,5.22
2022-09-28T00:36:50.960Z,5.40
2022-09-28T00:39:19.854Z,5.13
2022-09-28T00:41:48.157Z,4.53
2022-09-28T00:44:39.659Z,5.60
2022-09-28T00:47:32.171Z,5.63
2022-09-28T00:50:06.778Z,5.22
2022-09-28T00:52:39.099Z,4.90
2022-09-28T00:55:14.751Z,5.43
2022-09-28T00:57:47.707Z,5.22
2022-09-28T01:02:45.016Z,4.93
2022-09-28T01:05:18.706Z,5.68
2022-09-28T01:07:48.519Z,5.65
2022-09-28T01:10:16.914Z,6.10
2022-09-28T01:12:44.948Z,5.30
2022-09-28T01:15:14.056Z,5.20
2022-09-28T01:17:57.113Z,5.30
2022-09-28T01:20:52.480Z,5.35
2022-09-28T01:23:34.065Z,6.10
2022-09-28T01:26:28.713Z,5.65
2022-09-28T01:29:05.563Z,5.60
2022-09-28T01:31:39.840Z,5.38
2022-09-28T01:36:44.637Z,5.25
2022-09-28T01:39:16.261Z,4.90
2022-09-28T01:41:51.304Z,5.13
2022-09-28T01:44:22.843Z,5.13
2022-09-28T01:46:53.113Z,4.55
2022-09-28T01:49:25.196Z,5.18
2022-09-28T01:51:57.050Z,5.63
2022-09-28T01:54:32.991Z,6.90
2022-09-28T01:57:09.627Z,5.35
2022-09-28T01:59:42.318Z,5.28
2022-09-28T02:02:15.564Z,5.50
2022-09-28T02:04:51.322Z,5.82
2022-09-28T02:07:24.057Z,5.07
2022-09-28T02:09:57.819Z,5.43
2022-09-28T02:12:34.443Z,6.15
2022-09-28T02:15:11.754Z,6.60
2022-09-28T02:17:40.014Z,5.78
2022-09-28T02:20:08.973Z,6.00
2022-09-28T02:22:43.661Z,5.22
2022-09-28T02:25:17.739Z,6.10
2022-09-28T02:27:55.078Z,6.63
2022-09-28T02:30:23.400Z,7.03
2022-09-28T02:32:55.583Z,6.85
2022-09-28T02:35:24.893Z,7.28
2022-09-28T02:37:54.278Z,6.63
2022-09-28T02:40:25.125Z,7.18
2022-09-28T02:43:06.485Z,7.50
2022-09-28T02:45:46.549Z,7.22
2022-09-28T02:48:43.235Z,7.20
2022-09-28T02:51:22.128Z,7.32
2022-09-28T02:54:07.229Z,7.75
2022-09-28T02:56:55.043Z,7.72
2022-09-28T02:59:36.482Z,7.88
2022-09-28T03:02:11.474Z,8.05
2022-09-28T03:04:47.071Z,8.07
2022-09-28T03:07:27.658Z,8.05
2022-09-28T03:10:02.628Z,8.93
2022-09-28T03:12:33.833Z,7.90
2022-09-28T03:15:13.588Z,8.10
2022-09-28T03:17:42.825Z,8.98
2022-09-28T03:20:12.511Z,8.25
2022-09-28T03:22:40.843Z,8.27
2022-09-28T03:25:09.779Z,9.23
2022-09-28T03:27:39.880Z,8.32
2022-09-28T03:30:11.590Z,9.05
2022-09-28T03:32:42.434Z,9.10
2022-09-28T03:35:13.322Z,9.10
2022-09-28T03:37:41.448Z,9.70
2022-09-28T03:40:10.268Z,9.75
2022-09-28T03:42:38.675Z,9.48
2022-09-28T03:45:07.711Z,9.57
2022-09-28T03:47:37.533Z,9.63
2022-09-28T03:50:06.882Z,9.68
2022-09-28T03:52:34.797Z,8.98
2022-09-28T03:55:03.029Z,9.70
2022-09-28T03:57:31.204Z,9.45
2022-09-28T03:59:59.284Z,10.75
2022-09-28T04:02:31.476Z,10.60
2022-09-28T04:05:01.064Z,10.73
2022-09-28T04:07:31.188Z,10.80
2022-09-28T04:10:00.075Z,10.13
2022-09-28T04:12:28.144Z,11.00
2022-09-28T04:14:56.283Z,10.50
2022-09-28T04:17:24.406Z,12.25
2022-09-28T04:19:52.781Z,11.27
2022-09-28T04:22:43.111Z,11.43
2022-09-28T04:25:11.330Z,12.60
2022-09-28T04:27:56.803Z,11.27
2022-09-28T04:30:24.983Z,15.10
2022-09-28T04:32:54.070Z,13.23
2022-09-28T04:35:22.072Z,12.75
2022-09-28T04:37:51.470Z,12.93
2022-09-28T04:40:19.521Z,12.02
2022-09-28T04:42:55.278Z,11.13
2022-09-28T04:45:25.947Z,13.20
2022-09-28T04:47:58.941Z,11.70
2022-09-28T04:50:45.471Z,15.95
2022-09-28T04:53:20.342Z,13.05
2022-09-28T04:55:57.594Z,12.38
2022-09-28T04:58:26.178Z,11.88
2022-09-28T05:00:54.796Z,12.65
2022-09-28T05:03:44.394Z,12.13
2022-09-28T05:06:30.660Z,14.27
2022-09-28T05:09:05.106Z,12.93
2022-09-28T05:11:34.511Z,12.65
2022-09-28T05:14:03.500Z,12.55
2022-09-28T05:16:33.758Z,13.23
2022-09-28T05:19:20.523Z,13.38
2022-09-28T05:21:49.126Z,13.77
2022-09-28T05:24:18.619Z,11.38
2022-09-28T05:26:54.006Z,11.13
2022-09-28T05:29:22.540Z,11.77
2022-09-28T05:32:09.418Z,10.57
2022-09-28T05:34:57.411Z,11.25
2022-09-28T05:37:31.321Z,11.35
2022-09-28T05:40:00.868Z,10.65
2022-09-28T05:42:28.913Z,12.13
2022-09-28T05:44:59.338Z,13.18
2022-09-28T05:47:28.646Z,12.10
2022-09-28T05:49:56.894Z,11.70
2022-09-28T05:52:24.953Z,11.20
2022-09-28T05:54:52.992Z,10.43
2022-09-28T05:57:22.444Z,10.27
2022-09-28T05:59:50.569Z,9.55
2022-09-28T06:02:18.771Z,11.10
2022-09-28T06:04:49.507Z,11.95
2022-09-28T06:07:17.560Z,11.88
2022-09-28T06:09:45.654Z,12.60
2022-09-28T06:12:20.982Z,12.68
2022-09-28T06:14:52.828Z,10.57
2022-09-28T06:17:21.044Z,11.25
2022-09-28T06:19:59.798Z,11.95
2022-09-28T06:22:37.130Z,14.27
2022-09-28T06:25:09.667Z,14.65
2022-09-28T06:27:42.507Z,11.23
2022-09-28T06:30:13.154Z,9.20
2022-09-28T06:32:42.145Z,9.23
2022-09-28T06:35:15.485Z,9.80
2022-09-28T06:37:46.333Z,10.50
2022-09-28T06:40:15.074Z,9.93
2022-09-28T06:42:43.685Z,17.48
2022-09-28T06:45:36.804Z,20.08
2022-09-28T06:48:27.916Z,16.45
2022-09-28T06:50:56.068Z,15.98
2022-09-28T06:53:37.705Z,11.63
2022-09-28T06:56:33.104Z,11.00
2022-09-28T06:59:01.627Z,10.65
2022-09-28T07:01:33.774Z,9.98
2022-09-28T07:04:28.057Z,9.90
2022-09-28T07:07:02.102Z,9.98
2022-09-28T07:09:59.326Z,10.57
2022-09-28T07:12:42.043Z,12.20
2022-09-28T07:15:25.512Z,11.18
2022-09-28T07:18:02.557Z,10.25
2022-09-28T07:20:38.680Z,10.63
2022-09-28T07:23:18.175Z,11.27
2022-09-28T07:26:08.900Z,11.15
2022-09-28T07:29:03.563Z,12.40
2022-09-28T07:31:54.881Z,11.68
2022-09-28T07:34:59.570Z,10.65
2022-09-28T07:37:44.753Z,11.02
2022-09-28T07:40:32.239Z,13.63
2022-09-28T07:43:05.421Z,12.65
2022-09-28T07:45:35.947Z,13.88
2022-09-28T07:48:04.954Z,12.88
2022-09-28T07:50:52.877Z,13.30
2022-09-28T07:53:59.214Z,12.10
2022-09-28T07:56:47.341Z,11.75
2022-09-28T07:59:31.746Z,13.13
2022-09-28T08:02:20.160Z,12.80
2022-09-28T08:04:48.748Z,13.40
2022-09-28T08:07:23.465Z,12.10
2022-09-28T08:09:58.373Z,12.80
2022-09-28T08:12:29.280Z,12.38
2022-09-28T08:15:16.244Z,12.30
2022-09-28T08:18:12.371Z,10.88
2022-09-28T08:20:57.700Z,11.80
2022-09-28T08:23:30.239Z,10.30
2022-09-28T08:25:58.413Z,10.20
2022-09-28T08:28:26.687Z,10.95
2022-09-28T08:31:01.159Z,10.93
2022-09-28T08:33:32.220Z,11.15
2022-09-28T08:36:18.912Z,10.38
2022-09-28T08:39:11.169Z,9.65
2022-09-28T08:42:10.391Z,10.85
2022-09-28T08:44:58.786Z,11.18
2022-09-28T08:48:12.277Z,11.15
2022-09-28T08:51:12.005Z,10.43
2022-09-28T08:54:01.734Z,11.02
2022-09-28T08:56:41.899Z,12.07
2022-09-28T08:59:16.703Z,10.05
2022-09-28T09:01:54.228Z,8.93
2022-09-28T09:04:24.108Z,10.52
2022-09-28T09:07:21.342Z,8.38
2022-09-28T09:10:13.024Z,8.73
2022-09-28T09:12:49.573Z,6.68
2022-09-28T09:15:48.761Z,7.00
2022-09-28T09:18:38.533Z,7.43
2022-09-28T09:21:43.262Z,8.75
2022-09-28T09:24:27.206Z,8.43
2022-09-28T09:27:06.891Z,6.88
2022-09-28T09:29:56.025Z,7.03
2022-09-28T09:32:42.490Z,6.25
2022-09-28T09:35:37.828Z,6.78
2022-09-28T09:38:49.270Z,6.35
2022-09-28T09:41:49.603Z,6.13
2022-09-28T09:45:07.599Z,7.43
2022-09-28T09:47:45.205Z,5.40
2022-09-28T09:50:30.073Z,5.85
2022-09-28T09:53:07.402Z,6.68
2022-09-28T09:55:40.627Z,5.50
2022-09-28T09:58:36.664Z,6.35
2022-09-28T10:01:21.019Z,4.28
2022-09-28T10:04:24.966Z,6.38
2022-09-28T10:06:59.687Z,4.57
2022-09-28T10:09:32.230Z,3.03
2022-09-28T10:12:20.610Z,3.63
2022-09-28T10:14:49.100Z,2.30
2022-09-28T10:17:26.686Z,3.78
2022-09-28T10:20:14.664Z,3.80
2022-09-28T10:23:02.958Z,3.10
2022-09-28T10:25:37.996Z,2.00
2022-09-28T10:28:07.881Z,2.35
2022-09-28T10:30:43.486Z,2.88
2022-09-28T10:33:32.235Z,2.15
2022-09-28T10:36:02.546Z,2.10
2022-09-28T10:38:35.230Z,2.35
2022-09-28T10:41:16.641Z,2.88
2022-09-28T10:44:07.329Z,2.42
2022-09-28T10:46:57.906Z,2.22
2022-09-28T10:49:28.554Z,1.95
2022-09-28T10:52:00.045Z,3.70
2022-09-28T10:54:33.581Z,2.75
2022-09-28T10:57:02.457Z,2.60
2022-09-28T10:59:49.559Z,2.63
2022-09-28T11:02:38.674Z,2.63
2022-09-28T11:07:55.730Z,3.90
2022-09-28T11:10:32.670Z,3.80
2022-09-28T11:13:10.623Z,3.83
2022-09-28T11:15:44.327Z,3.87
2022-09-28T11:18:26.739Z,4.45
2022-09-28T11:21:13.015Z,4.10
2022-09-28T11:23:57.948Z,4.05
2022-09-28T11:26:26.222Z,3.88
2022-09-28T11:28:57.142Z,4.13
2022-09-28T11:31:39.807Z,4.40
2022-09-28T11:34:30.993Z,5.43
2022-09-28T11:37:35.478Z,3.28
2022-09-28T11:40:16.995Z,4.00
2022-09-28T11:42:53.550Z,4.47
2022-09-28T11:45:39.312Z,5.43
2022-09-28T11:48:10.377Z,4.72
2022-09-28T11:50:47.822Z,4.15
2022-09-28T11:53:30.912Z,3.78
2022-09-28T11:56:15.603Z,4.53
2022-09-28T11:58:47.550Z,3.13
2022-09-28T12:01:25.556Z,3.83
2022-09-28T12:04:18.423Z,3.15
2022-09-28T12:06:54.532Z,2.67
2022-09-28T12:09:35.857Z,2.53
2022-09-28T12:12:21.166Z,2.28
2022-09-28T12:14:51.353Z,1.67
2022-09-28T12:17:24.682Z,2.17
2022-09-28T12:19:57.872Z,1.83
2022-09-28T12:22:33.231Z,2.20
2022-09-28T12:25:05.119Z,2.30
2022-09-28T12:27:39.754Z,2.08
2022-09-28T12:30:15.389Z,2.22
2022-09-28T12:32:48.592Z,1.95
2022-09-28T12:35:24.517Z,2.97
2022-09-28T12:38:08.771Z,1.77
2022-09-28T12:40:47.077Z,2.00
2022-09-28T12:43:45.561Z,1.60
2022-09-28T12:46:43.155Z,1.65
2022-09-28T12:50:33.277Z,1.65
2022-09-28T12:52:45.939Z,2.30
2022-09-28T12:55:25.537Z,1.73
2022-09-28T12:58:17.157Z,2.72
2022-09-28T13:01:03.291Z,3.30
2022-09-28T13:04:23.677Z,2.80
2022-09-28T13:07:01.471Z,2.38
2022-09-28T13:09:39.588Z,2.33
2022-09-28T13:12:25.860Z,1.90
2022-09-28T13:15:24.898Z,1.98
2022-09-28T13:18:00.366Z,2.53
2022-09-28T13:20:49.379Z,1.70
2022-09-28T13:23:22.349Z,2.10
2022-09-28T13:25:56.188Z,3.03
2022-09-28T13:28:27.379Z,4.28
2022-09-28T13:33:36.895Z,2.25
2022-09-28T13:36:25.793Z,1.98
2022-09-28T13:38:54.918Z,1.65
2022-09-28T13:41:29.159Z,1.75
2022-09-28T13:44:31.912Z,1.60
2022-09-28T13:47:20.611Z,2.00
2022-09-28T13:50:04.770Z,2.78
2022-09-28T13:52:44.715Z,2.55
2022-09-28T13:55:28.713Z,1.88
2022-09-28T13:58:00.936Z,1.40
2022-09-28T14:00:34.255Z,2.35
2022-09-28T14:03:23.382Z,2.00
2022-09-28T14:06:10.974Z,1.77
2022-09-28T14:08:45.053Z,1.30
2022-09-28T14:11:43.109Z,1.50
2022-09-28T14:14:48.718Z,1.80
2022-09-28T14:17:56.763Z,1.90
2022-09-28T14:20:31.498Z,1.98
2022-09-28T14:23:35.241Z,2.03
2022-09-28T14:26:44.472Z,2.47
2022-09-28T14:29:28.436Z,3.10
2022-09-28T14:31:58.288Z,2.10
2022-09-28T14:34:34.109Z,2.72
2022-09-28T14:37:23.323Z,2.92
2022-09-28T14:40:09.651Z,2.53
2022-09-28T14:42:37.812Z,2.78
2022-09-28T14:45:35.839Z,3.25
2022-09-28T14:48:19.167Z,2.20
2022-09-28T14:50:49.899Z,2.50
2022-09-28T14:53:25.009Z,6.53
2022-09-28T14:55:56.609Z,2.42
2022-09-28T14:58:27.430Z,1.92
2022-09-28T15:01:02.607Z,3.50
2022-09-28T15:03:34.206Z,2.60
2022-09-28T15:06:02.789Z,2.55
2022-09-28T15:08:39.456Z,4.30
2022-09-28T15:11:13.377Z,5.95
2022-09-28T15:13:41.580Z,2.88
2022-09-28T15:16:12.321Z,2.28
2022-09-28T15:19:10.506Z,2.53
2022-09-28T15:21:40.888Z,3.00
2022-09-28T15:24:34.044Z,3.28
2022-09-28T15:27:03.134Z,3.70
2022-09-28T15:29:33.235Z,3.47
2022-09-28T15:32:01.873Z,5.35
2022-09-28T15:34:49.587Z,3.88
2022-09-28T15:37:22.082Z,3.72
2022-09-28T15:39:53.548Z,3.67
2022-09-28T15:42:22.617Z,3.80
2022-09-28T15:45:04.175Z,4.00
2022-09-28T15:47:33.145Z,3.30
2022-09-28T15:50:02.821Z,4.45
2022-09-28T15:52:38.945Z,4.03
2022-09-28T15:55:22.086Z,3.17
2022-09-28T16:00:26.934Z,3.15
2022-09-28T16:03:20.257Z,3.50
2022-09-28T16:08:24.563Z,4.90
2022-09-28T16:11:04.037Z,4.35
2022-09-28T16:13:32.567Z,4.22
2022-09-28T16:16:01.743Z,4.30
2022-09-28T16:18:35.679Z,3.50
2022-09-28T16:21:27.666Z,3.10
2022-09-28T16:23:57.526Z,6.00
2022-09-28T16:26:32.855Z,5.70
2022-09-28T16:29:02.276Z,5.45
2022-09-28T16:31:34.706Z,3.90
2022-09-28T16:34:17.560Z,5.13
2022-09-28T16:36:47.642Z,5.50
2022-09-28T16:39:17.247Z,4.50
2022-09-28T16:41:50.198Z,4.88
2022-09-28T16:46:53.885Z,5.22
2022-09-28T16:49:23.962Z,4.63
2022-09-28T16:51:52.515Z,4.68
2022-09-28T16:54:39.943Z,4.97
2022-09-28T16:57:12.262Z,4.40
2022-09-28T16:59:40.421Z,7.07
2022-09-28T17:02:45.024Z,5.18
2022-09-28T17:05:08.870Z,5.85
2022-09-28T17:07:37.530Z,5.40
2022-09-28T17:10:15.675Z,5.82
2022-09-28T17:12:45.159Z,6.45
2022-09-28T17:15:18.733Z,6.72
2022-09-28T17:17:47.225Z,6.88
2022-09-28T17:20:22.745Z,5.70
2022-09-28T17:22:51.308Z,7.20
2022-09-28T17:25:19.406Z,8.82
2022-09-28T17:27:50.623Z,9.13
2022-09-28T17:30:23.661Z,8.18
2022-09-28T17:32:53.805Z,8.30
2022-09-28T17:35:24.696Z,8.32
2022-09-28T17:37:53.839Z,7.65
2022-09-28T17:40:23.632Z,7.78
2022-09-28T17:42:55.177Z,8.57
2022-09-28T17:45:24.180Z,9.40
2022-09-28T17:47:52.245Z,9.07
2022-09-28T17:50:25.199Z,7.72
2022-09-28T17:52:54.659Z,7.43
2022-09-28T17:55:24.396Z,8.05
2022-09-28T17:57:53.941Z,9.95
2022-09-28T18:00:22.835Z,9.48
2022-09-28T18:02:52.353Z,8.77
2022-09-28T18:05:20.754Z,9.43
2022-09-28T18:07:49.876Z,9.63
2022-09-28T18:10:21.307Z,9.00
2022-09-28T18:12:53.043Z,9.95
2022-09-28T18:15:20.980Z,9.30
2022-09-28T18:17:49.125Z,10.20
2022-09-28T18:20:17.200Z,9.23
2022-09-28T18:22:45.270Z,9.32
2022-09-28T18:25:13.919Z,9.48
2022-09-28T18:27:44.363Z,9.43
2022-09-28T18:30:13.958Z,9.80
2022-09-28T18:32:42.052Z,10.82
2022-09-28T18:35:11.286Z,10.65
2022-09-28T18:37:40.870Z,9.82
2022-09-28T18:40:13.982Z,11.17
2022-09-28T18:42:42.951Z,9.63
2022-09-28T18:45:16.659Z,10.52
2022-09-28T18:47:45.249Z,10.93
2022-09-28T18:50:15.445Z,9.95
2022-09-28T18:52:47.215Z,9.82
2022-09-28T18:55:15.924Z,11.25
2022-09-28T18:57:44.734Z,11.93
2022-09-28T19:00:15.814Z,12.60
2022-09-28T19:02:43.887Z,12.88
2022-09-28T19:05:12.243Z,12.60
2022-09-28T19:07:40.513Z,13.65
2022-09-28T19:10:09.540Z,12.85
2022-09-28T19:12:37.597Z,11.55
2022-09-28T19:15:06.562Z,11.85
2022-09-28T19:17:35.954Z,11.20
2022-09-28T19:20:04.586Z,11.38
2022-09-28T19:22:32.645Z,9.98
2022-09-28T19:25:00.695Z,9.75
2022-09-28T19:27:28.665Z,10.65
2022-09-28T19:29:56.591Z,9.10
2022-09-28T19:32:24.641Z,10.05
2022-09-28T19:34:54.020Z,9.85
2022-09-28T19:37:22.148Z,10.45
2022-09-28T19:39:50.258Z,9.98
2022-09-28T19:42:18.405Z,10.20
2022-09-28T19:44:47.419Z,10.23
2022-09-28T19:47:18.765Z,9.02
2022-09-28T19:49:48.006Z,10.13
2022-09-28T19:52:19.694Z,10.35
2022-09-28T19:54:56.775Z,10.45
2022-09-28T19:57:27.622Z,9.88
2022-09-28T20:00:02.054Z,10.90
2022-09-28T20:02:34.060Z,10.82
2022-09-28T20:05:02.186Z,12.23
2022-09-28T20:07:36.102Z,11.88
2022-09-28T20:10:04.197Z,12.18
2022-09-28T20:12:32.164Z,12.68
2022-09-28T20:15:00.130Z,12.65
2022-09-28T20:17:28.654Z,13.50
2022-09-28T20:19:57.531Z,12.65
2022-09-28T20:22:25.631Z,14.90
2022-09-28T20:24:55.003Z,13.30
2022-09-28T20:27:26.211Z,15.30
2022-09-28T20:29:56.797Z,15.35
2022-09-28T20:32:25.209Z,16.63
2022-09-28T20:34:53.333Z,16.55
2022-09-28T20:37:21.508Z,16.55
2022-09-28T20:39:50.155Z,18.55
2022-09-28T20:42:20.120Z,19.90
2022-09-28T20:44:48.420Z,19.90
2022-09-28T20:47:16.787Z,20.75
2022-09-28T20:49:47.516Z,20.27
2022-09-28T20:52:15.939Z,19.08
2022-09-28T20:54:44.043Z,18.33
2022-09-28T20:57:18.406Z,17.17
2022-09-28T20:59:53.641Z,15.88
2022-09-28T21:02:22.978Z,15.25
2022-09-28T21:04:51.525Z,14.68
2022-09-28T21:07:19.592Z,13.80
2022-09-28T21:09:47.638Z,12.05
2022-09-28T21:12:15.631Z,12.48
2022-09-28T21:14:43.624Z,12.40
2022-09-28T21:17:15.071Z,12.80
2022-09-28T21:19:43.017Z,12.90
2022-09-28T21:22:10.983Z,12.95
2022-09-28T21:24:39.030Z,12.48
2022-09-28T21:27:07.183Z,12.05
2022-09-28T21:29:35.150Z,11.77
2022-09-28T21:32:03.459Z,11.63
2022-09-28T21:34:33.627Z,11.68
2022-09-28T21:37:01.656Z,10.88
2022-09-28T21:39:29.612Z,11.15
2022-09-28T21:41:57.602Z,10.45
2022-09-28T21:44:25.568Z,10.88
2022-09-28T21:46:53.526Z,10.68
2022-09-28T21:49:21.485Z,11.65
2022-09-28T21:51:52.250Z,10.35
2022-09-28T21:54:20.336Z,10.52
2022-09-28T21:56:48.462Z,9.77
2022-09-28T21:59:16.588Z,10.43
2022-09-28T22:01:44.634Z,9.15
2022-09-28T22:04:12.853Z,8.98
2022-09-28T22:06:43.668Z,9.15
2022-09-28T22:09:13.045Z,9.30
2022-09-28T22:11:41.129Z,8.93
2022-09-28T22:14:11.589Z,9.50
2022-09-28T22:16:42.030Z,10.30
2022-09-28T22:19:10.580Z,9.95
2022-09-28T22:21:39.019Z,9.43
2022-09-28T22:24:08.528Z,9.35
2022-09-28T22:26:39.361Z,9.40
2022-09-28T22:29:09.080Z,9.95
2022-09-28T22:31:39.727Z,9.35
2022-09-28T22:34:08.692Z,9.43
2022-09-28T22:36:37.018Z,8.75
2022-09-28T22:39:07.503Z,9.60
2022-09-28T22:41:36.970Z,9.48
2022-09-28T22:44:05.080Z,10.05
2022-09-28T22:46:33.303Z,9.48
2022-09-28T22:49:02.090Z,9.32
2022-09-28T22:51:31.597Z,9.57
2022-09-28T22:54:00.147Z,11.93
2022-09-28T22:56:28.382Z,10.23
2022-09-28T22:58:58.035Z,9.52
2022-09-28T23:01:28.121Z,10.23
2022-09-28T23:03:57.292Z,9.82
2022-09-28T23:06:30.235Z,9.60
2022-09-28T23:08:58.403Z,9.98
2022-09-28T23:11:26.869Z,9.52
2022-09-28T23:13:57.825Z,9.70
2022-09-28T23:16:27.019Z,10.25
2022-09-28T23:18:55.966Z,9.55
2022-09-28T23:21:25.625Z,10.15
2022-09-28T23:23:56.271Z,10.40
2022-09-28T23:26:26.760Z,9.82
2022-09-28T23:28:55.476Z,9.95
2022-09-28T23:31:26.709Z,10.38
2022-09-28T23:33:59.261Z,9.68
2022-09-28T23:36:27.642Z,9.93
2022-09-28T23:38:55.758Z,11.02
2022-09-28T23:41:24.115Z,10.38
2022-09-28T23:43:52.350Z,11.02
2022-09-28T23:46:21.308Z,10.55
2022-09-28T23:48:51.289Z,10.85
2022-09-28T23:51:19.558Z,11.02
2022-09-28T23:53:48.105Z,10.77
2022-09-28T23:56:16.364Z,10.65
2022-09-28T23:58:48.750Z,11.57
